Moore, Texas
Current Conditions -  °F | °C
As of 2:15 PM on Monday 24 Nov 2014 (Local Time) from KCVB Reporting Station
Clear Clear  
Wind Chill: 19°   Ceiling: Unl
Heat Index: 19°   Visibility: 7mi
Dew Point: -3°   Wind: 5mph
Humidity: 23%   Direction: 330°NNW
Pressure: 30.06"   Gusts: NA
Location:  29.06°N, 99.01°W
Report Text: KCVB 242015Z AUTO 33004KT 7SM CLR 19/M03 A3006 RMK AO2 T01851032
Loading
Personal Weather Stations






























Interactive Weather Map New forecast layout! Learn more

10-Day Weather Forecast

Advertisements
Track Severe Weather on mobile